Aérodrome :
LOGIN :

S'inscrire | Disclaimer

   EN    FR    IT 

 










Légende :    VFR   VFR Marginal   IFR   IFR Intensif   IFR Très Intensif
Visi : 
Plafond : 
>= 8 km
>= 3000ft
5 à 8 km
1000 à 3000 ft
1500m à 5 km
500 à 1000 ft
800 à 1500m
200 à 500 ft
< 800m
< 200 ft
Symboles :   Orages  Brouillard  Fortes neiges  Fortes précipitations  Vent > 20 kt
SIGMETs :   Divers  Orages  Givrage  Turbulence  Onde Orograph.  Cendres Volcan.






- Altitude de l'aérodrome : 24 ft
- Code IATA : SGD


EKSB - Sonderborg

DERNIER METAR :
  • 150920Z 12009KT 090V150 CAVOK 24/19 Q1005

METARs EXPIRÉS :
  • 150850Z 11009KT CAVOK 24/20 Q1005
  • 150820Z 11008KT 9999 FEW015 25/19 Q1005
  • 150750Z 12006KT 090V150 9999 FEW010 24/20 Q1005
  • 150720Z 12006KT 9999 SCT009 23/20 Q1005
  • 150650Z 12006KT 9999 SCT009 22/20 Q1005

TAF TAF EKSB
Valide du 15 à 09h jusqu'au 15 à 18h UTC


150856Z 1509/1518 12008KT CAVOK
TEMPO 1512/1516 VRB15G25KT SHRA SCT040CB



MET'MAP, la Météo Aéronautique d'un coup d'oeil ! - Copyright ORBIFLY Décembre 2007 - Disclaimer

ORBIFLY MET'MAP TEAM :

Programmation & Développement : Alexandra Zaïnal
Sur une idée originale de : Baudouin d'Aumeries
Soutien technique & logistique : Manuel Goepfert
Assistance : Marc-Olivier Méhu




SOURCES & CREDITS :

   NOAA